sensor_id;sensor_type;location;lat;lon;timestamp;P1;durP1;ratioP1;P2;durP2;ratioP2
36415;SDS011;22447;44.530;18.620;2023-05-15T00:00:00;16.40;;;8.57;;
36415;SDS011;22447;44.530;18.620;2023-05-15T00:02:26;11.40;;;7.72;;
36415;SDS011;22447;44.530;18.620;2023-05-15T00:04:52;11.55;;;7.38;;
36415;SDS011;22447;44.530;18.620;2023-05-15T00:07:18;8.75;;;7.20;;
36415;SDS011;22447;44.530;18.620;2023-05-15T00:09:44;8.48;;;7.03;;
36415;SDS011;22447;44.530;18.620;2023-05-15T00:12:10;9.48;;;6.60;;
36415;SDS011;22447;44.530;18.620;2023-05-15T00:14:36;8.32;;;5.53;;
36415;SDS011;22447;44.530;18.620;2023-05-15T00:17:02;16.08;;;5.63;;
36415;SDS011;22447;44.530;18.620;2023-05-15T00:19:28;10.07;;;4.72;;
36415;SDS011;22447;44.530;18.620;2023-05-15T00:21:54;5.47;;;3.38;;
36415;SDS011;22447;44.530;18.620;2023-05-15T00:24:20;7.60;;;2.95;;
36415;SDS011;22447;44.530;18.620;2023-05-15T00:26:46;5.78;;;2.75;;
36415;SDS011;22447;44.530;18.620;2023-05-15T00:29:12;10.57;;;2.45;;
36415;SDS011;22447;44.530;18.620;2023-05-15T00:31:38;3.08;;;1.70;;
36415;SDS011;22447;44.530;18.620;2023-05-15T00:34:04;4.38;;;2.33;;
36415;SDS011;22447;44.530;18.620;2023-05-15T00:36:30;4.95;;;2.40;;
36415;SDS011;22447;44.530;18.620;2023-05-15T00:38:56;7.40;;;3.17;;
36415;SDS011;22447;44.530;18.620;2023-05-15T00:41:22;12.13;;;3.08;;
36415;SDS011;22447;44.530;18.620;2023-05-15T00:43:52;4.25;;;2.58;;
36415;SDS011;22447;44.530;18.620;2023-05-15T00:46:20;8.05;;;3.10;;
36415;SDS011;22447;44.530;18.620;2023-05-15T00:48:48;9.85;;;3.60;;
36415;SDS011;22447;44.530;18.620;2023-05-15T00:51:16;10.32;;;3.42;;
36415;SDS011;22447;44.530;18.620;2023-05-15T00:53:42;5.47;;;2.47;;
36415;SDS011;22447;44.530;18.620;2023-05-15T00:56:10;7.93;;;2.10;;
36415;SDS011;22447;44.530;18.620;2023-05-15T00:58:37;15.93;;;3.30;;
36415;SDS011;22447;44.530;18.620;2023-05-15T01:01:03;22.58;;;3.55;;
36415;SDS011;22447;44.530;18.620;2023-05-15T01:03:30;4.63;;;1.90;;
36415;SDS011;22447;44.530;18.620;2023-05-15T01:05:58;4.30;;;1.58;;
36415;SDS011;22447;44.530;18.620;2023-05-15T01:08:26;4.80;;;1.92;;
36415;SDS011;22447;44.530;18.620;2023-05-15T01:11:10;4.45;;;1.95;;
36415;SDS011;22447;44.530;18.620;2023-05-15T01:13:38;6.88;;;2.03;;
36415;SDS011;22447;44.530;18.620;2023-05-15T01:16:05;9.45;;;1.95;;
36415;SDS011;22447;44.530;18.620;2023-05-15T01:18:33;14.20;;;2.78;;
36415;SDS011;22447;44.530;18.620;2023-05-15T01:27:04;66.03;;;26.55;;
36415;SDS011;22447;44.530;18.620;2023-05-15T01:32:14;56.25;;;18.20;;
36415;SDS011;22447;44.530;18.620;2023-05-15T01:37:47;38.38;;;13.93;;
36415;SDS011;22447;44.530;18.620;2023-05-15T01:40:19;37.13;;;11.52;;
36415;SDS011;22447;44.530;18.620;2023-05-15T01:42:55;37.42;;;12.32;;
36415;SDS011;22447;44.530;18.620;2023-05-15T01:45:25;28.73;;;10.10;;
36415;SDS011;22447;44.530;18.620;2023-05-15T01:47:53;15.30;;;5.95;;
36415;SDS011;22447;44.530;18.620;2023-05-15T01:50:20;16.73;;;6.88;;
36415;SDS011;22447;44.530;18.620;2023-05-15T01:52:48;15.18;;;6.18;;
36415;SDS011;22447;44.530;18.620;2023-05-15T01:55:18;10.65;;;4.18;;
36415;SDS011;22447;44.530;18.620;2023-05-15T01:57:45;9.05;;;3.95;;
36415;SDS011;22447;44.530;18.620;2023-05-15T02:00:13;8.25;;;4.15;;
36415;SDS011;22447;44.530;18.620;2023-05-15T02:02:40;5.40;;;2.63;;
36415;SDS011;22447;44.530;18.620;2023-05-15T02:05:07;3.03;;;1.88;;
36415;SDS011;22447;44.530;18.620;2023-05-15T02:07:34;1.88;;;1.20;;
36415;SDS011;22447;44.530;18.620;2023-05-15T02:10:00;1.38;;;1.10;;
36415;SDS011;22447;44.530;18.620;2023-05-15T02:12:28;3.63;;;0.80;;
36415;SDS011;22447;44.530;18.620;2023-05-15T02:14:56;1.60;;;0.98;;
36415;SDS011;22447;44.530;18.620;2023-05-15T02:17:23;2.53;;;1.00;;
36415;SDS011;22447;44.530;18.620;2023-05-15T02:19:52;4.70;;;1.00;;
36415;SDS011;22447;44.530;18.620;2023-05-15T02:22:18;1.38;;;1.02;;
36415;SDS011;22447;44.530;18.620;2023-05-15T02:24:44;1.98;;;1.25;;
36415;SDS011;22447;44.530;18.620;2023-05-15T02:27:19;2.05;;;1.20;;
36415;SDS011;22447;44.530;18.620;2023-05-15T02:32:20;3.08;;;1.20;;
36415;SDS011;22447;44.530;18.620;2023-05-15T02:37:59;2.15;;;1.05;;
36415;SDS011;22447;44.530;18.620;2023-05-15T02:40:27;1.63;;;1.17;;
36415;SDS011;22447;44.530;18.620;2023-05-15T02:42:54;3.17;;;1.10;;
36415;SDS011;22447;44.530;18.620;2023-05-15T02:45:22;6.53;;;1.77;;
36415;SDS011;22447;44.530;18.620;2023-05-15T02:47:49;3.50;;;1.30;;
36415;SDS011;22447;44.530;18.620;2023-05-15T02:50:15;5.95;;;2.00;;
36415;SDS011;22447;44.530;18.620;2023-05-15T02:52:42;5.43;;;1.85;;
36415;SDS011;22447;44.530;18.620;2023-05-15T02:55:08;4.30;;;1.63;;
36415;SDS011;22447;44.530;18.620;2023-05-15T02:57:35;3.85;;;1.20;;
36415;SDS011;22447;44.530;18.620;2023-05-15T03:00:00;2.75;;;1.60;;
36415;SDS011;22447;44.530;18.620;2023-05-15T03:02:29;3.25;;;1.23;;
36415;SDS011;22447;44.530;18.620;2023-05-15T03:04:55;3.80;;;1.60;;
36415;SDS011;22447;44.530;18.620;2023-05-15T03:07:21;5.75;;;1.80;;
36415;SDS011;22447;44.530;18.620;2023-05-15T03:09:47;2.38;;;1.42;;
36415;SDS011;22447;44.530;18.620;2023-05-15T03:12:13;3.58;;;1.33;;
36415;SDS011;22447;44.530;18.620;2023-05-15T03:14:39;6.03;;;1.30;;
36415;SDS011;22447;44.530;18.620;2023-05-15T03:17:05;2.42;;;1.10;;
36415;SDS011;22447;44.530;18.620;2023-05-15T03:19:31;3.70;;;1.20;;
36415;SDS011;22447;44.530;18.620;2023-05-15T03:21:57;7.57;;;1.48;;
36415;SDS011;22447;44.530;18.620;2023-05-15T03:24:23;5.90;;;1.40;;
36415;SDS011;22447;44.530;18.620;2023-05-15T03:26:49;1.70;;;1.10;;
36415;SDS011;22447;44.530;18.620;2023-05-15T03:29:15;3.72;;;1.40;;
36415;SDS011;22447;44.530;18.620;2023-05-15T03:31:41;4.15;;;1.27;;
36415;SDS011;22447;44.530;18.620;2023-05-15T03:34:07;1.83;;;1.30;;
36415;SDS011;22447;44.530;18.620;2023-05-15T03:36:33;5.05;;;1.20;;
36415;SDS011;22447;44.530;18.620;2023-05-15T03:38:58;2.30;;;1.35;;
36415;SDS011;22447;44.530;18.620;2023-05-15T03:41:25;4.53;;;1.70;;
36415;SDS011;22447;44.530;18.620;2023-05-15T03:43:52;3.83;;;1.30;;
36415;SDS011;22447;44.530;18.620;2023-05-15T03:46:18;2.88;;;1.70;;
36415;SDS011;22447;44.530;18.620;2023-05-15T03:48:44;3.67;;;2.15;;
36415;SDS011;22447;44.530;18.620;2023-05-15T03:51:09;6.10;;;2.50;;
36415;SDS011;22447;44.530;18.620;2023-05-15T03:53:35;7.95;;;2.42;;
36415;SDS011;22447;44.530;18.620;2023-05-15T03:56:01;5.88;;;2.55;;
36415;SDS011;22447;44.530;18.620;2023-05-15T03:58:27;5.47;;;2.50;;
36415;SDS011;22447;44.530;18.620;2023-05-15T04:00:56;5.97;;;2.10;;
36415;SDS011;22447;44.530;18.620;2023-05-15T04:03:22;7.22;;;2.63;;
36415;SDS011;22447;44.530;18.620;2023-05-15T04:05:48;8.10;;;2.78;;
36415;SDS011;22447;44.530;18.620;2023-05-15T04:08:16;9.85;;;3.30;;
36415;SDS011;22447;44.530;18.620;2023-05-15T04:10:42;9.50;;;3.55;;
36415;SDS011;22447;44.530;18.620;2023-05-15T04:13:08;8.00;;;3.72;;
36415;SDS011;22447;44.530;18.620;2023-05-15T04:15:33;5.20;;;2.83;;
36415;SDS011;22447;44.530;18.620;2023-05-15T04:18:00;6.15;;;3.00;;
36415;SDS011;22447;44.530;18.620;2023-05-15T04:20:25;5.10;;;2.65;;
36415;SDS011;22447;44.530;18.620;2023-05-15T04:22:51;7.25;;;2.72;;
36415;SDS011;22447;44.530;18.620;2023-05-15T04:25:18;5.93;;;2.33;;
36415;SDS011;22447;44.530;18.620;2023-05-15T04:27:48;5.50;;;2.20;;
36415;SDS011;22447;44.530;18.620;2023-05-15T04:30:14;6.78;;;2.58;;
36415;SDS011;22447;44.530;18.620;2023-05-15T04:32:40;7.78;;;2.80;;
36415;SDS011;22447;44.530;18.620;2023-05-15T04:35:06;4.95;;;2.28;;
36415;SDS011;22447;44.530;18.620;2023-05-15T04:37:41;3.72;;;1.40;;
36415;SDS011;22447;44.530;18.620;2023-05-15T04:40:07;3.85;;;1.63;;
36415;SDS011;22447;44.530;18.620;2023-05-15T04:42:34;6.55;;;2.38;;
36415;SDS011;22447;44.530;18.620;2023-05-15T04:45:01;9.82;;;3.05;;
36415;SDS011;22447;44.530;18.620;2023-05-15T04:47:27;5.45;;;1.60;;
36415;SDS011;22447;44.530;18.620;2023-05-15T04:49:53;8.65;;;2.08;;
36415;SDS011;22447;44.530;18.620;2023-05-15T04:52:19;6.03;;;2.20;;
36415;SDS011;22447;44.530;18.620;2023-05-15T04:54:45;6.32;;;1.60;;
36415;SDS011;22447;44.530;18.620;2023-05-15T04:57:13;6.20;;;1.55;;
36415;SDS011;22447;44.530;18.620;2023-05-15T04:59:39;5.57;;;1.77;;
36415;SDS011;22447;44.530;18.620;2023-05-15T05:02:05;4.00;;;1.90;;
36415;SDS011;22447;44.530;18.620;2023-05-15T05:04:31;4.07;;;2.15;;
36415;SDS011;22447;44.530;18.620;2023-05-15T05:06:57;7.20;;;2.20;;
36415;SDS011;22447;44.530;18.620;2023-05-15T05:09:23;4.07;;;1.83;;
36415;SDS011;22447;44.530;18.620;2023-05-15T05:11:49;3.97;;;2.05;;
36415;SDS011;22447;44.530;18.620;2023-05-15T05:14:15;3.65;;;1.90;;
36415;SDS011;22447;44.530;18.620;2023-05-15T05:16:43;4.03;;;1.95;;
36415;SDS011;22447;44.530;18.620;2023-05-15T05:19:09;3.00;;;1.92;;
36415;SDS011;22447;44.530;18.620;2023-05-15T05:21:35;4.93;;;2.03;;
36415;SDS011;22447;44.530;18.620;2023-05-15T05:24:01;6.70;;;2.70;;
36415;SDS011;22447;44.530;18.620;2023-05-15T05:26:27;6.70;;;2.10;;
36415;SDS011;22447;44.530;18.620;2023-05-15T05:28:53;7.60;;;3.45;;
36415;SDS011;22447;44.530;18.620;2023-05-15T05:31:19;8.50;;;3.00;;
36415;SDS011;22447;44.530;18.620;2023-05-15T05:33:46;4.15;;;2.47;;
36415;SDS011;22447;44.530;18.620;2023-05-15T05:36:13;6.65;;;2.33;;
36415;SDS011;22447;44.530;18.620;2023-05-15T05:38:40;7.63;;;2.50;;
36415;SDS011;22447;44.530;18.620;2023-05-15T05:41:06;6.72;;;2.67;;
36415;SDS011;22447;44.530;18.620;2023-05-15T05:43:32;4.68;;;1.70;;
36415;SDS011;22447;44.530;18.620;2023-05-15T05:45:58;9.63;;;2.47;;
36415;SDS011;22447;44.530;18.620;2023-05-15T05:48:24;6.60;;;3.17;;
36415;SDS011;22447;44.530;18.620;2023-05-15T05:50:51;5.55;;;2.95;;
36415;SDS011;22447;44.530;18.620;2023-05-15T05:53:17;4.82;;;3.03;;
36415;SDS011;22447;44.530;18.620;2023-05-15T05:55:43;13.65;;;4.78;;
36415;SDS011;22447;44.530;18.620;2023-05-15T05:58:09;11.35;;;5.70;;
36415;SDS011;22447;44.530;18.620;2023-05-15T06:00:35;10.48;;;5.43;;
36415;SDS011;22447;44.530;18.620;2023-05-15T06:03:01;11.20;;;5.35;;
36415;SDS011;22447;44.530;18.620;2023-05-15T06:05:27;18.45;;;6.55;;
36415;SDS011;22447;44.530;18.620;2023-05-15T06:07:53;24.63;;;8.15;;
36415;SDS011;22447;44.530;18.620;2023-05-15T06:10:20;15.65;;;6.43;;
36415;SDS011;22447;44.530;18.620;2023-05-15T06:12:46;6.07;;;3.45;;
36415;SDS011;22447;44.530;18.620;2023-05-15T06:15:15;9.90;;;4.22;;
36415;SDS011;22447;44.530;18.620;2023-05-15T06:17:41;7.60;;;3.85;;
36415;SDS011;22447;44.530;18.620;2023-05-15T06:20:07;6.25;;;3.85;;
36415;SDS011;22447;44.530;18.620;2023-05-15T06:22:37;7.15;;;3.28;;
36415;SDS011;22447;44.530;18.620;2023-05-15T06:25:04;8.18;;;2.92;;
36415;SDS011;22447;44.530;18.620;2023-05-15T06:27:38;6.78;;;2.90;;
36415;SDS011;22447;44.530;18.620;2023-05-15T06:30:05;4.57;;;2.97;;
36415;SDS011;22447;44.530;18.620;2023-05-15T06:32:32;4.45;;;3.03;;
36415;SDS011;22447;44.530;18.620;2023-05-15T06:34:58;6.18;;;2.65;;
36415;SDS011;22447;44.530;18.620;2023-05-15T06:37:24;3.67;;;2.28;;
36415;SDS011;22447;44.530;18.620;2023-05-15T06:39:50;8.18;;;2.15;;
36415;SDS011;22447;44.530;18.620;2023-05-15T06:42:16;14.95;;;4.38;;
36415;SDS011;22447;44.530;18.620;2023-05-15T06:44:48;10.77;;;3.42;;
36415;SDS011;22447;44.530;18.620;2023-05-15T06:47:14;7.10;;;3.10;;
36415;SDS011;22447;44.530;18.620;2023-05-15T06:49:40;6.28;;;3.00;;
36415;SDS011;22447;44.530;18.620;2023-05-15T06:52:06;5.38;;;3.25;;
36415;SDS011;22447;44.530;18.620;2023-05-15T06:54:32;5.72;;;3.22;;
36415;SDS011;22447;44.530;18.620;2023-05-15T06:56:58;13.43;;;4.57;;
36415;SDS011;22447;44.530;18.620;2023-05-15T06:59:24;5.22;;;2.90;;
36415;SDS011;22447;44.530;18.620;2023-05-15T07:01:50;4.75;;;2.50;;
36415;SDS011;22447;44.530;18.620;2023-05-15T07:04:16;9.38;;;3.15;;
36415;SDS011;22447;44.530;18.620;2023-05-15T07:06:42;4.60;;;1.48;;
36415;SDS011;22447;44.530;18.620;2023-05-15T07:09:08;8.05;;;2.58;;
36415;SDS011;22447;44.530;18.620;2023-05-15T07:11:34;6.40;;;3.13;;
36415;SDS011;22447;44.530;18.620;2023-05-15T07:14:03;5.10;;;3.08;;
36415;SDS011;22447;44.530;18.620;2023-05-15T07:16:30;10.27;;;4.05;;
36415;SDS011;22447;44.530;18.620;2023-05-15T07:18:56;12.10;;;5.00;;
36415;SDS011;22447;44.530;18.620;2023-05-15T07:21:23;8.50;;;4.10;;
36415;SDS011;22447;44.530;18.620;2023-05-15T07:23:49;8.68;;;4.18;;
36415;SDS011;22447;44.530;18.620;2023-05-15T07:26:15;7.88;;;3.08;;
36415;SDS011;22447;44.530;18.620;2023-05-15T07:28:41;3.58;;;2.25;;
36415;SDS011;22447;44.530;18.620;2023-05-15T07:31:07;6.50;;;2.20;;
36415;SDS011;22447;44.530;18.620;2023-05-15T07:33:33;2.60;;;1.85;;
36415;SDS011;22447;44.530;18.620;2023-05-15T07:35:59;3.60;;;2.58;;
36415;SDS011;22447;44.530;18.620;2023-05-15T07:38:25;4.78;;;2.63;;
36415;SDS011;22447;44.530;18.620;2023-05-15T07:40:55;4.13;;;2.33;;
36415;SDS011;22447;44.530;18.620;2023-05-15T07:43:21;7.45;;;3.15;;
36415;SDS011;22447;44.530;18.620;2023-05-15T07:45:47;7.70;;;2.97;;
36415;SDS011;22447;44.530;18.620;2023-05-15T07:48:13;7.55;;;4.00;;
36415;SDS011;22447;44.530;18.620;2023-05-15T07:50:40;5.80;;;3.08;;
36415;SDS011;22447;44.530;18.620;2023-05-15T07:53:06;5.60;;;3.28;;
36415;SDS011;22447;44.530;18.620;2023-05-15T07:55:32;5.78;;;3.40;;
36415;SDS011;22447;44.530;18.620;2023-05-15T07:57:58;4.70;;;3.17;;
36415;SDS011;22447;44.530;18.620;2023-05-15T08:00:23;3.50;;;2.25;;
36415;SDS011;22447;44.530;18.620;2023-05-15T08:02:49;9.52;;;4.75;;
36415;SDS011;22447;44.530;18.620;2023-05-15T08:05:15;6.75;;;3.35;;
36415;SDS011;22447;44.530;18.620;2023-05-15T08:07:41;7.00;;;3.85;;
36415;SDS011;22447;44.530;18.620;2023-05-15T08:10:07;6.97;;;3.10;;
36415;SDS011;22447;44.530;18.620;2023-05-15T08:12:34;5.05;;;2.90;;
36415;SDS011;22447;44.530;18.620;2023-05-15T08:15:01;4.95;;;3.58;;
36415;SDS011;22447;44.530;18.620;2023-05-15T08:17:27;6.95;;;3.70;;
36415;SDS011;22447;44.530;18.620;2023-05-15T08:19:53;6.97;;;3.65;;
36415;SDS011;22447;44.530;18.620;2023-05-15T08:22:20;5.10;;;2.70;;
36415;SDS011;22447;44.530;18.620;2023-05-15T08:24:45;1.30;;;0.95;;
36415;SDS011;22447;44.530;18.620;2023-05-15T08:27:11;4.60;;;1.38;;
36415;SDS011;22447;44.530;18.620;2023-05-15T08:29:38;4.38;;;1.40;;
36415;SDS011;22447;44.530;18.620;2023-05-15T08:32:04;2.42;;;0.90;;
36415;SDS011;22447;44.530;18.620;2023-05-15T08:34:31;2.97;;;1.35;;
36415;SDS011;22447;44.530;18.620;2023-05-15T08:36:57;4.43;;;1.25;;
36415;SDS011;22447;44.530;18.620;2023-05-15T08:39:24;6.47;;;1.67;;
36415;SDS011;22447;44.530;18.620;2023-05-15T08:42:04;4.40;;;2.00;;
36415;SDS011;22447;44.530;18.620;2023-05-15T08:44:35;3.03;;;1.17;;
36415;SDS011;22447;44.530;18.620;2023-05-15T08:47:05;2.35;;;1.10;;
36415;SDS011;22447;44.530;18.620;2023-05-15T08:49:43;2.17;;;0.85;;
36415;SDS011;22447;44.530;18.620;2023-05-15T08:52:24;3.10;;;1.48;;
36415;SDS011;22447;44.530;18.620;2023-05-15T08:54:51;9.40;;;2.17;;
36415;SDS011;22447;44.530;18.620;2023-05-15T08:57:17;14.32;;;6.20;;
36415;SDS011;22447;44.530;18.620;2023-05-15T08:59:43;12.10;;;3.40;;
36415;SDS011;22447;44.530;18.620;2023-05-15T09:02:10;19.33;;;8.35;;
36415;SDS011;22447;44.530;18.620;2023-05-15T09:04:36;17.23;;;7.30;;
36415;SDS011;22447;44.530;18.620;2023-05-15T09:07:02;20.33;;;8.57;;
36415;SDS011;22447;44.530;18.620;2023-05-15T09:09:31;15.45;;;5.90;;
36415;SDS011;22447;44.530;18.620;2023-05-15T09:11:59;11.02;;;4.38;;
36415;SDS011;22447;44.530;18.620;2023-05-15T09:16:56;6.82;;;2.80;;
36415;SDS011;22447;44.530;18.620;2023-05-15T09:19:22;6.30;;;2.72;;
36415;SDS011;22447;44.530;18.620;2023-05-15T09:21:48;6.03;;;2.33;;
36415;SDS011;22447;44.530;18.620;2023-05-15T09:24:15;11.80;;;4.60;;
36415;SDS011;22447;44.530;18.620;2023-05-15T09:27:02;6.60;;;2.97;;
36415;SDS011;22447;44.530;18.620;2023-05-15T09:29:30;4.47;;;2.30;;
36415;SDS011;22447;44.530;18.620;2023-05-15T09:32:00;5.43;;;2.25;;
36415;SDS011;22447;44.530;18.620;2023-05-15T09:34:47;5.03;;;2.40;;
36415;SDS011;22447;44.530;18.620;2023-05-15T09:37:29;6.10;;;3.50;;
36415;SDS011;22447;44.530;18.620;2023-05-15T09:40:05;7.82;;;4.50;;
36415;SDS011;22447;44.530;18.620;2023-05-15T09:42:37;79.40;;;28.27;;
36415;SDS011;22447;44.530;18.620;2023-05-15T09:45:03;44.20;;;17.25;;
36415;SDS011;22447;44.530;18.620;2023-05-15T09:47:30;15.95;;;8.00;;
36415;SDS011;22447;44.530;18.620;2023-05-15T09:49:56;12.32;;;4.93;;
36415;SDS011;22447;44.530;18.620;2023-05-15T09:52:23;16.20;;;6.90;;
36415;SDS011;22447;44.530;18.620;2023-05-15T09:54:52;16.37;;;5.33;;
36415;SDS011;22447;44.530;18.620;2023-05-15T09:57:20;7.70;;;3.35;;
36415;SDS011;22447;44.530;18.620;2023-05-15T09:59:47;20.65;;;13.13;;
36415;SDS011;22447;44.530;18.620;2023-05-15T10:02:23;63.38;;;42.55;;
36415;SDS011;22447;44.530;18.620;2023-05-15T10:05:01;21.05;;;14.55;;
36415;SDS011;22447;44.530;18.620;2023-05-15T10:07:30;10.93;;;7.43;;
36415;SDS011;22447;44.530;18.620;2023-05-15T10:09:59;6.05;;;3.70;;
36415;SDS011;22447;44.530;18.620;2023-05-15T10:12:27;12.05;;;3.47;;
36415;SDS011;22447;44.530;18.620;2023-05-15T10:15:05;7.00;;;3.92;;
36415;SDS011;22447;44.530;18.620;2023-05-15T10:17:31;7.63;;;2.38;;
36415;SDS011;22447;44.530;18.620;2023-05-15T10:20:00;3.67;;;2.38;;
36415;SDS011;22447;44.530;18.620;2023-05-15T10:22:31;10.55;;;6.85;;
36415;SDS011;22447;44.530;18.620;2023-05-15T10:25:49;17.27;;;9.88;;
36415;SDS011;22447;44.530;18.620;2023-05-15T10:27:58;12.40;;;7.57;;
36415;SDS011;22447;44.530;18.620;2023-05-15T10:30:25;7.35;;;3.63;;
36415;SDS011;22447;44.530;18.620;2023-05-15T10:32:53;2.65;;;2.10;;
36415;SDS011;22447;44.530;18.620;2023-05-15T10:35:21;6.43;;;3.63;;
36415;SDS011;22447;44.530;18.620;2023-05-15T10:37:47;9.57;;;4.88;;
36415;SDS011;22447;44.530;18.620;2023-05-15T10:40:15;25.58;;;14.98;;
36415;SDS011;22447;44.530;18.620;2023-05-15T10:42:43;6.10;;;3.65;;
36415;SDS011;22447;44.530;18.620;2023-05-15T10:45:13;6.63;;;4.07;;
36415;SDS011;22447;44.530;18.620;2023-05-15T10:47:39;8.50;;;6.10;;
36415;SDS011;22447;44.530;18.620;2023-05-15T10:52:36;5.47;;;2.97;;
36415;SDS011;22447;44.530;18.620;2023-05-15T10:55:12;3.92;;;2.10;;
36415;SDS011;22447;44.530;18.620;2023-05-15T10:57:43;7.07;;;3.50;;
36415;SDS011;22447;44.530;18.620;2023-05-15T11:02:48;5.82;;;2.70;;
36415;SDS011;22447;44.530;18.620;2023-05-15T11:05:17;3.33;;;1.65;;
36415;SDS011;22447;44.530;18.620;2023-05-15T11:08:01;2.38;;;1.52;;
36415;SDS011;22447;44.530;18.620;2023-05-15T11:10:49;6.07;;;1.98;;
36415;SDS011;22447;44.530;18.620;2023-05-15T11:13:17;7.65;;;2.17;;
36415;SDS011;22447;44.530;18.620;2023-05-15T11:15:44;10.35;;;3.08;;
36415;SDS011;22447;44.530;18.620;2023-05-15T11:18:11;9.00;;;3.85;;
36415;SDS011;22447;44.530;18.620;2023-05-15T11:23:03;7.70;;;3.90;;
36415;SDS011;22447;44.530;18.620;2023-05-15T11:25:29;8.93;;;3.63;;
36415;SDS011;22447;44.530;18.620;2023-05-15T11:27:58;6.95;;;2.22;;
36415;SDS011;22447;44.530;18.620;2023-05-15T11:30:37;14.10;;;2.55;;
36415;SDS011;22447;44.530;18.620;2023-05-15T11:33:08;12.65;;;4.70;;
36415;SDS011;22447;44.530;18.620;2023-05-15T11:35:36;7.30;;;1.65;;
36415;SDS011;22447;44.530;18.620;2023-05-15T11:38:10;3.20;;;1.20;;
36415;SDS011;22447;44.530;18.620;2023-05-15T11:40:52;10.65;;;1.60;;
36415;SDS011;22447;44.530;18.620;2023-05-15T11:43:21;9.30;;;2.13;;
36415;SDS011;22447;44.530;18.620;2023-05-15T11:48:40;13.35;;;3.00;;
36415;SDS011;22447;44.530;18.620;2023-05-15T11:53:54;7.22;;;2.78;;
36415;SDS011;22447;44.530;18.620;2023-05-15T11:56:24;5.18;;;1.95;;
36415;SDS011;22447;44.530;18.620;2023-05-15T11:58:55;4.18;;;1.77;;
36415;SDS011;22447;44.530;18.620;2023-05-15T12:01:57;6.68;;;2.55;;
36415;SDS011;22447;44.530;18.620;2023-05-15T12:04:27;3.90;;;1.70;;
36415;SDS011;22447;44.530;18.620;2023-05-15T12:06:53;8.20;;;1.98;;
36415;SDS011;22447;44.530;18.620;2023-05-15T12:09:19;7.30;;;2.35;;
36415;SDS011;22447;44.530;18.620;2023-05-15T12:11:50;2.35;;;1.42;;
36415;SDS011;22447;44.530;18.620;2023-05-15T12:14:17;3.05;;;1.40;;
36415;SDS011;22447;44.530;18.620;2023-05-15T12:16:53;2.22;;;1.50;;
36415;SDS011;22447;44.530;18.620;2023-05-15T12:19:33;3.20;;;1.50;;
36415;SDS011;22447;44.530;18.620;2023-05-15T12:22:05;8.30;;;1.50;;
36415;SDS011;22447;44.530;18.620;2023-05-15T12:24:32;2.95;;;1.60;;
36415;SDS011;22447;44.530;18.620;2023-05-15T12:27:07;6.45;;;2.47;;
36415;SDS011;22447;44.530;18.620;2023-05-15T12:29:34;3.70;;;1.67;;
36415;SDS011;22447;44.530;18.620;2023-05-15T12:32:01;2.67;;;1.95;;
36415;SDS011;22447;44.530;18.620;2023-05-15T12:34:28;3.92;;;2.10;;
36415;SDS011;22447;44.530;18.620;2023-05-15T12:36:54;5.43;;;2.67;;
36415;SDS011;22447;44.530;18.620;2023-05-15T12:39:20;20.00;;;4.72;;
36415;SDS011;22447;44.530;18.620;2023-05-15T12:41:46;9.52;;;4.43;;
36415;SDS011;22447;44.530;18.620;2023-05-15T12:44:17;8.15;;;3.55;;
36415;SDS011;22447;44.530;18.620;2023-05-15T12:46:43;8.32;;;3.35;;
36415;SDS011;22447;44.530;18.620;2023-05-15T12:49:11;10.35;;;4.10;;
36415;SDS011;22447;44.530;18.620;2023-05-15T12:51:41;9.57;;;4.68;;
36415;SDS011;22447;44.530;18.620;2023-05-15T12:54:15;12.07;;;4.45;;
36415;SDS011;22447;44.530;18.620;2023-05-15T12:56:46;10.15;;;4.40;;
36415;SDS011;22447;44.530;18.620;2023-05-15T12:59:12;17.55;;;5.03;;
36415;SDS011;22447;44.530;18.620;2023-05-15T13:01:39;11.07;;;4.50;;
36415;SDS011;22447;44.530;18.620;2023-05-15T13:04:08;12.82;;;4.25;;
36415;SDS011;22447;44.530;18.620;2023-05-15T13:06:36;9.50;;;4.32;;
36415;SDS011;22447;44.530;18.620;2023-05-15T13:09:05;19.80;;;6.60;;
36415;SDS011;22447;44.530;18.620;2023-05-15T13:11:32;18.50;;;6.03;;
36415;SDS011;22447;44.530;18.620;2023-05-15T13:13:59;24.70;;;7.03;;
36415;SDS011;22447;44.530;18.620;2023-05-15T13:16:26;23.30;;;7.00;;
36415;SDS011;22447;44.530;18.620;2023-05-15T13:18:55;23.33;;;8.40;;
36415;SDS011;22447;44.530;18.620;2023-05-15T13:21:24;33.28;;;9.43;;
36415;SDS011;22447;44.530;18.620;2023-05-15T13:23:50;26.08;;;8.75;;
36415;SDS011;22447;44.530;18.620;2023-05-15T13:26:16;25.52;;;12.05;;
36415;SDS011;22447;44.530;18.620;2023-05-15T13:28:42;32.30;;;15.52;;
36415;SDS011;22447;44.530;18.620;2023-05-15T13:31:08;38.38;;;17.48;;
36415;SDS011;22447;44.530;18.620;2023-05-15T13:33:34;55.22;;;20.73;;
36415;SDS011;22447;44.530;18.620;2023-05-15T13:36:00;50.55;;;22.75;;
36415;SDS011;22447;44.530;18.620;2023-05-15T13:38:26;47.00;;;21.63;;
36415;SDS011;22447;44.530;18.620;2023-05-15T13:40:52;74.07;;;30.42;;
36415;SDS011;22447;44.530;18.620;2023-05-15T13:43:18;85.07;;;37.33;;
36415;SDS011;22447;44.530;18.620;2023-05-15T13:45:44;96.95;;;40.67;;
36415;SDS011;22447;44.530;18.620;2023-05-15T13:48:10;97.20;;;42.55;;
36415;SDS011;22447;44.530;18.620;2023-05-15T13:50:36;103.63;;;42.33;;
36415;SDS011;22447;44.530;18.620;2023-05-15T13:53:03;109.90;;;44.00;;
36415;SDS011;22447;44.530;18.620;2023-05-15T13:55:30;102.38;;;47.13;;
36415;SDS011;22447;44.530;18.620;2023-05-15T13:57:56;107.15;;;47.00;;
36415;SDS011;22447;44.530;18.620;2023-05-15T14:00:23;108.28;;;48.53;;
36415;SDS011;22447;44.530;18.620;2023-05-15T14:02:49;112.43;;;45.03;;
36415;SDS011;22447;44.530;18.620;2023-05-15T14:05:15;119.45;;;45.97;;
36415;SDS011;22447;44.530;18.620;2023-05-15T14:07:41;116.15;;;46.92;;
36415;SDS011;22447;44.530;18.620;2023-05-15T14:10:08;130.50;;;50.50;;
36415;SDS011;22447;44.530;18.620;2023-05-15T14:12:35;90.95;;;36.40;;
36415;SDS011;22447;44.530;18.620;2023-05-15T14:15:02;67.97;;;29.90;;
36415;SDS011;22447;44.530;18.620;2023-05-15T14:17:28;47.55;;;20.67;;
36415;SDS011;22447;44.530;18.620;2023-05-15T14:19:54;56.05;;;24.55;;
36415;SDS011;22447;44.530;18.620;2023-05-15T14:22:20;59.88;;;28.08;;
36415;SDS011;22447;44.530;18.620;2023-05-15T14:24:49;63.08;;;30.48;;
36415;SDS011;22447;44.530;18.620;2023-05-15T14:27:16;69.60;;;30.30;;
36415;SDS011;22447;44.530;18.620;2023-05-15T14:29:42;83.03;;;34.95;;
36415;SDS011;22447;44.530;18.620;2023-05-15T14:32:09;101.30;;;40.97;;
36415;SDS011;22447;44.530;18.620;2023-05-15T14:34:34;106.43;;;43.35;;
36415;SDS011;22447;44.530;18.620;2023-05-15T14:37:01;110.53;;;47.83;;
36415;SDS011;22447;44.530;18.620;2023-05-15T14:39:27;108.32;;;49.70;;
36415;SDS011;22447;44.530;18.620;2023-05-15T14:41:54;109.63;;;53.22;;
36415;SDS011;22447;44.530;18.620;2023-05-15T14:44:20;103.60;;;49.65;;
36415;SDS011;22447;44.530;18.620;2023-05-15T14:46:46;90.78;;;41.83;;
36415;SDS011;22447;44.530;18.620;2023-05-15T14:49:12;77.60;;;38.20;;
36415;SDS011;22447;44.530;18.620;2023-05-15T14:51:38;97.28;;;41.38;;
36415;SDS011;22447;44.530;18.620;2023-05-15T14:54:04;98.53;;;40.67;;
36415;SDS011;22447;44.530;18.620;2023-05-15T14:56:30;100.57;;;40.83;;
36415;SDS011;22447;44.530;18.620;2023-05-15T14:58:56;117.65;;;47.20;;
36415;SDS011;22447;44.530;18.620;2023-05-15T15:01:22;114.82;;;46.95;;
36415;SDS011;22447;44.530;18.620;2023-05-15T15:03:48;116.22;;;48.10;;